Larder Lake, Canada
Current Conditions -  °F | °C
As of 10:00 AM on Sunday 21 Dec 2014 (Local Time) from CYXR Reporting Station
Overcast Overcast  
Wind Chill:   Ceiling: 8500
Heat Index:   Visibility: 9mi
Dew Point:   Wind: 2mph
Humidity: 92%   Direction: 350°N
Pressure: 30.27"   Gusts: NA
Location:  48.1°N, 79.72°W
Report Text: CYXR 211500Z AUTO 35002KT 9SM OVC085 M15/M16 A3027 RMK SLP278
Loading
Personal Weather Stations






























Interactive Weather Map New forecast layout! Learn more

10-Day Weather Forecast

Advertisements
Track Severe Weather on mobile